Time;durP1;ratioP1;P1;durP2;ratioP2;P2;SDS_P1;SDS_P2;PMS_P1;PMS_P2;Temp;Humidity;BMP_temperature;BMP_pressure;BME280_temperature;BME280_humidity;BME280_pressure;Samples;Min_cycle;Max_cycle;Signal;HPM_P1;HPM_P2
2021/12/04 00:01:50;;;;;;;37.78;21.23;;;4.70;99.90;;;;;;5141759;28;20043;-59
2021/12/04 00:04:34;;;;;;;38.13;23.42;;;4.80;99.90;;;;;;5126367;28;20043;-59
2021/12/04 00:07:02;;;;;;;39.47;21.52;;;4.70;99.90;;;;;;5144493;28;20573;-59
2021/12/04 00:09:29;;;;;;;43.55;23.40;;;4.70;99.90;;;;;;5127281;28;20051;-60
2021/12/04 00:12:02;;;;;;;43.00;22.15;;;4.60;99.90;;;;;;5127234;28;20487;-59
2021/12/04 00:14:33;;;;;;;39.58;22.42;;;4.70;99.90;;;;;;5146156;28;20126;-59
2021/12/04 00:16:59;;;;;;;38.85;22.83;;;4.70;99.90;;;;;;5126731;28;20076;-59
2021/12/04 00:19:26;;;;;;;35.30;19.17;;;4.70;99.90;;;;;;5126834;28;20081;-59
2021/12/04 00:21:53;;;;;;;38.03;19.25;;;4.80;99.90;;;;;;5145096;28;20114;-59
2021/12/04 00:24:20;;;;;;;35.35;20.38;;;4.90;99.90;;;;;;5126941;28;20123;-59
2021/12/04 00:26:47;;;;;;;38.28;22.08;;;4.70;99.90;;;;;;5146049;28;20049;-59
2021/12/04 00:29:13;;;;;;;38.63;21.52;;;4.80;99.90;;;;;;5145476;28;20047;-59
2021/12/04 00:31:45;;;;;;;41.38;21.48;;;4.80;99.90;;;;;;5144540;28;20047;-59
2021/12/04 00:34:11;;;;;;;41.13;23.08;;;4.70;99.90;;;;;;5145598;28;20051;-60
2021/12/04 00:50:07;;;;;;;38.88;21.55;;;4.60;99.90;;;;;;5148113;27;20054;-59
2021/12/04 00:52:32;;;;;;;42.20;23.20;;;4.70;99.90;;;;;;5130034;27;20051;-59
2021/12/04 00:54:58;;;;;;;42.08;21.40;;;4.60;99.90;;;;;;5139994;27;20046;-59
2021/12/04 00:57:24;;;;;;;39.70;19.92;;;4.60;99.90;;;;;;5148045;27;20062;-59
2021/12/04 00:59:49;;;;;;;43.22;21.60;;;4.70;99.90;;;;;;5147894;27;20074;-59
2021/12/04 01:02:18;;;;;;;39.38;19.67;;;4.70;99.90;;;;;;5148101;27;20074;-59
2021/12/04 01:04:44;;;;;;;43.17;22.65;;;4.80;99.90;;;;;;5148477;27;20406;-59
2021/12/04 01:07:10;;;;;;;36.47;18.42;;;4.70;99.90;;;;;;5148950;27;20043;-59
2021/12/04 01:09:37;;;;;;;42.25;21.13;;;4.80;99.90;;;;;;5147753;27;20043;-60
2021/12/04 01:12:03;;;;;;;40.53;21.38;;;4.70;99.90;;;;;;5148108;27;20047;-59
2021/12/04 01:14:31;;;;;;;40.15;20.35;;;4.80;99.90;;;;;;5128936;27;20043;-59
2021/12/04 01:16:58;;;;;;;39.85;20.85;;;4.80;99.90;;;;;;5147998;27;20046;-59
2021/12/04 01:19:25;;;;;;;40.63;20.60;;;4.80;99.90;;;;;;5147511;27;20077;-59
2021/12/04 01:21:52;;;;;;;41.67;22.33;;;4.80;99.90;;;;;;5129403;27;20049;-59
2021/12/04 01:24:18;;;;;;;41.97;21.42;;;4.70;99.90;;;;;;5147569;27;20046;-59
2021/12/04 01:26:44;;;;;;;43.70;21.52;;;4.70;99.90;;;;;;5130301;27;20051;-59
2021/12/04 01:29:10;;;;;;;38.75;20.38;;;4.60;99.90;;;;;;5147310;27;20039;-59
2021/12/04 01:31:35;;;;;;;35.92;19.58;;;4.70;99.90;;;;;;5129079;27;20181;-59
2021/12/04 01:34:01;;;;;;;35.70;18.95;;;4.70;99.90;;;;;;5147552;27;20127;-59
2021/12/04 01:36:29;;;;;;;35.22;18.98;;;4.80;99.90;;;;;;5147723;27;20190;-59
2021/12/04 01:38:55;;;;;;;27.95;17.15;;;4.90;99.90;;;;;;5147219;27;20050;-59
2021/12/04 01:41:21;;;;;;;27.80;15.35;;;5.00;99.90;;;;;;5147310;27;20487;-59
2021/12/04 01:43:47;;;;;;;35.38;19.20;;;5.00;99.90;;;;;;5128928;27;20069;-59
2021/12/04 01:46:13;;;;;;;32.45;19.55;;;4.90;99.90;;;;;;5130062;27;20410;-59
2021/12/04 01:48:39;;;;;;;29.42;18.70;;;4.90;99.90;;;;;;5148277;27;20081;-59
2021/12/04 01:51:05;;;;;;;31.50;17.98;;;5.00;99.90;;;;;;5129469;28;20050;-59
2021/12/04 01:53:31;;;;;;;30.77;17.60;;;5.00;99.90;;;;;;5143599;27;20043;-59
2021/12/04 01:55:58;;;;;;;32.13;18.60;;;5.10;99.90;;;;;;5128301;27;20079;-59
2021/12/04 01:58:26;;;;;;;30.10;18.58;;;5.00;99.90;;;;;;5147647;27;20043;-59
2021/12/04 02:00:52;;;;;;;28.20;17.67;;;5.00;99.90;;;;;;5128921;27;20441;-59
2021/12/04 02:03:19;;;;;;;30.73;18.15;;;5.10;99.90;;;;;;5146902;27;20043;-59
2021/12/04 02:05:46;;;;;;;30.95;19.08;;;5.20;99.90;;;;;;5146755;27;20491;-59
2021/12/04 02:08:14;;;;;;;28.75;18.92;;;5.00;99.90;;;;;;5128266;27;20072;-59
2021/12/04 02:10:42;;;;;;;29.92;19.08;;;5.00;99.90;;;;;;5129171;27;20059;-59
2021/12/04 02:13:08;;;;;;;29.65;18.83;;;4.80;99.90;;;;;;5129288;27;20055;-59
2021/12/04 02:15:33;;;;;;;29.70;19.20;;;4.90;99.90;;;;;;5128283;27;20057;-59
2021/12/04 02:18:01;;;;;;;31.05;19.00;;;4.80;99.90;;;;;;5146702;27;20047;-59
2021/12/04 02:20:29;;;;;;;28.83;18.73;;;4.90;99.90;;;;;;5146307;27;20087;-59
2021/12/04 02:22:56;;;;;;;29.27;18.20;;;4.90;99.90;;;;;;5128357;27;20043;-59
2021/12/04 02:25:22;;;;;;;27.52;18.10;;;5.10;99.90;;;;;;5147073;27;20106;-59
2021/12/04 02:27:47;;;;;;;27.85;18.35;;;5.00;99.90;;;;;;5127876;27;20115;-59
2021/12/04 02:30:20;;;;;;;28.88;20.52;;;4.80;99.90;;;;;;5128687;27;20039;-59
2021/12/04 02:32:47;;;;;;;29.77;19.08;;;4.90;99.90;;;;;;5128864;27;20047;-59
2021/12/04 02:35:13;;;;;;;26.27;17.20;;;4.80;99.90;;;;;;5128458;27;20047;-59
2021/12/04 02:37:40;;;;;;;27.23;16.75;;;4.90;99.90;;;;;;5127767;27;20103;-59
2021/12/04 02:40:09;;;;;;;26.17;17.20;;;5.00;99.90;;;;;;5146898;27;20047;-59
2021/12/04 02:42:35;;;;;;;26.40;16.75;;;4.90;99.90;;;;;;5146162;27;20054;-59
2021/12/04 02:45:03;;;;;;;22.40;16.30;;;5.00;99.90;;;;;;5127642;27;20075;-59
2021/12/04 02:47:29;;;;;;;24.58;16.15;;;5.00;99.90;;;;;;5127577;27;20452;-59
2021/12/04 02:49:56;;;;;;;21.30;15.00;;;5.10;99.90;;;;;;5145858;27;20064;-59
2021/12/04 02:52:23;;;;;;;19.10;13.25;;;5.20;99.90;;;;;;5127748;27;20051;-59
2021/12/04 02:54:50;;;;;;;21.45;15.15;;;5.30;99.90;;;;;;5127503;27;20055;-59
2021/12/04 02:57:18;;;;;;;20.60;15.70;;;5.20;99.90;;;;;;5124838;27;20043;-59
2021/12/04 02:59:44;;;;;;;17.77;13.68;;;5.10;99.90;;;;;;5127017;27;20643;-59
2021/12/04 03:02:20;;;;;;;20.05;14.52;;;5.20;99.90;;;;;;5145439;27;20069;-59
2021/12/04 03:04:50;;;;;;;19.35;14.63;;;5.20;99.90;;;;;;5145318;27;20035;-59
2021/12/04 03:07:16;;;;;;;;;;;5.00;99.90;;;;;;5146331;27;20046;-59
2021/12/04 03:09:42;;;;;;;19.67;13.57;;;4.80;99.90;;;;;;5145851;27;19922;-59
2021/12/04 03:12:09;;;;;;;19.38;14.20;;;4.90;99.90;;;;;;5146419;27;20043;-59
2021/12/04 03:14:35;;;;;;;18.08;14.32;;;4.80;99.90;;;;;;5127368;27;20043;-59
2021/12/04 03:17:02;;;;;;;19.58;14.15;;;4.80;99.90;;;;;;5146207;27;20402;-59
2021/12/04 03:19:28;;;;;;;18.13;13.77;;;4.70;99.90;;;;;;5146900;27;20058;-59
2021/12/04 03:21:55;;;;;;;18.75;13.52;;;4.70;99.90;;;;;;5145292;27;20114;-59
2021/12/04 03:24:23;;;;;;;18.88;14.23;;;4.70;99.90;;;;;;5127165;27;20054;-59
2021/12/04 03:26:50;;;;;;;17.33;13.13;;;4.70;99.90;;;;;;5110165;27;20054;-59
2021/12/04 03:29:19;;;;;;;17.65;13.20;;;4.80;99.90;;;;;;5145326;27;20046;-59
2021/12/04 03:42:44;;;;;;;14.75;11.88;;;4.80;99.90;;;;;;5139498;27;20102;-59
2021/12/04 03:45:11;;;;;;;14.57;11.60;;;4.80;99.90;;;;;;5145100;28;20031;-59
2021/12/04 03:47:44;;;;;;;15.07;11.93;;;4.80;99.90;;;;;;5145081;28;20047;-59
2021/12/04 03:50:11;;;;;;;15.25;11.50;;;4.80;99.90;;;;;;5145450;28;20043;-59
2021/12/04 03:52:37;;;;;;;16.58;12.23;;;4.90;99.90;;;;;;5146052;28;20070;-59
2021/12/04 03:55:07;;;;;;;15.20;12.30;;;5.00;99.90;;;;;;5133919;28;20063;-59
2021/12/04 03:57:33;;;;;;;;;;;4.80;99.90;;;;;;5127010;28;20054;-59
2021/12/04 04:00:00;;;;;;;15.60;11.57;;;4.80;99.90;;;;;;5145489;28;19919;-59
2021/12/04 04:02:26;;;;;;;14.98;11.10;;;4.90;99.90;;;;;;5127601;28;20050;-59
2021/12/04 04:04:53;;;;;;;17.70;12.55;;;4.80;99.90;;;;;;5126440;28;20130;-59
2021/12/04 04:07:19;;;;;;;16.10;11.75;;;4.80;99.90;;;;;;5126510;28;20077;-59
2021/12/04 04:09:45;;;;;;;18.25;11.98;;;4.80;99.90;;;;;;5126287;28;20146;-60
2021/12/04 04:12:10;;;;;;;16.38;12.38;;;4.80;99.90;;;;;;5126806;28;20051;-59
2021/12/04 04:14:36;;;;;;;17.40;13.05;;;4.80;99.90;;;;;;5146345;27;20067;-59
2021/12/04 04:17:03;;;;;;;16.80;11.65;;;4.60;99.90;;;;;;5149462;27;20035;-59
2021/12/04 04:19:29;;;;;;;17.40;12.63;;;4.70;99.90;;;;;;5129961;27;20103;-59
2021/12/04 04:21:56;;;;;;;16.95;11.93;;;4.80;99.90;;;;;;5148740;27;20070;-59
2021/12/04 04:24:24;;;;;;;18.33;12.43;;;4.80;99.90;;;;;;5148676;27;20139;-59
2021/12/04 04:26:50;;;;;;;19.05;13.02;;;4.70;99.90;;;;;;5130384;27;20407;-59
2021/12/04 04:29:16;;;;;;;19.35;12.98;;;4.60;99.90;;;;;;5130362;27;20051;-59
2021/12/04 04:31:49;;;;;;;19.77;13.10;;;4.70;99.90;;;;;;5130577;27;20047;-59
2021/12/04 04:34:31;;;;;;;17.02;12.48;;;4.60;99.90;;;;;;5130156;27;20112;-59
2021/12/04 04:37:21;;;;;;;19.90;13.45;;;4.60;99.90;;;;;;5131285;27;20124;-59
2021/12/04 04:59:29;;;;;;;19.95;12.80;;;4.70;99.90;;;;;;5117155;27;20047;-59
2021/12/04 05:02:05;;;;;;;19.02;12.63;;;4.60;99.90;;;;;;5146665;27;20582;-59
2021/12/04 05:12:56;;;;;;;19.48;13.15;;;4.70;99.90;;;;;;5147709;27;20066;-59
2021/12/04 05:20:40;;;;;;;;;;;4.70;99.90;;;;;;5149546;27;20047;-59
2021/12/04 05:23:10;;;;;;;20.65;15.52;;;4.60;99.90;;;;;;5148628;27;19919;-59
2021/12/04 05:25:36;;;;;;;19.52;14.30;;;4.70;99.90;;;;;;5148738;27;20103;-59
2021/12/04 05:28:06;;;;;;;20.00;13.20;;;4.70;99.90;;;;;;5147766;27;20420;-59
2021/12/04 05:30:32;;;;;;;;;;;4.60;99.90;;;;;;5129869;27;20407;-59
2021/12/04 05:32:59;;;;;;;15.48;11.60;;;4.70;99.90;;;;;;5128966;27;19926;-59
2021/12/04 05:35:25;;;;;;;15.35;11.40;;;4.80;99.90;;;;;;5148617;27;20036;-59
2021/12/04 05:37:51;;;;;;;18.17;12.20;;;4.90;99.90;;;;;;5147421;27;20031;-59
2021/12/04 05:40:17;;;;;;;16.63;12.05;;;4.80;99.90;;;;;;5129151;27;20104;-59
2021/12/04 05:42:44;;;;;;;16.58;12.52;;;4.80;99.90;;;;;;5148275;27;20384;-59
2021/12/04 05:45:28;;;;;;;19.65;12.00;;;4.80;99.90;;;;;;5147352;27;20043;-59
2021/12/04 05:48:04;;;;;;;18.50;12.55;;;4.80;99.90;;;;;;5128583;27;20047;-59
2021/12/04 05:55:28;;;;;;;18.60;12.68;;;5.00;99.90;;;;;;5123406;27;20111;-59
2021/12/04 05:57:54;;;;;;;18.48;12.70;;;5.00;99.90;;;;;;5147339;27;20051;-59
2021/12/04 06:00:23;;;;;;;19.20;12.77;;;5.00;99.90;;;;;;5127884;27;20047;-59
2021/12/04 06:02:49;;;;;;;16.48;11.88;;;5.00;99.90;;;;;;5128312;27;20043;-59
2021/12/04 06:05:15;;;;;;;19.42;12.50;;;5.00;99.90;;;;;;5129529;27;20046;-59
2021/12/04 06:07:41;;;;;;;16.10;11.80;;;5.00;99.90;;;;;;5147980;27;20076;-59
2021/12/04 06:10:08;;;;;;;16.48;11.88;;;5.10;99.90;;;;;;5147899;27;20059;-61
2021/12/04 06:12:34;;;;;;;15.88;11.90;;;5.10;99.90;;;;;;5147914;27;20104;-59
2021/12/04 06:15:00;;;;;;;18.38;11.90;;;5.10;99.90;;;;;;5147340;27;20051;-59
2021/12/04 06:17:28;;;;;;;15.55;12.35;;;5.10;99.90;;;;;;5146376;27;20039;-59
2021/12/04 06:22:41;;;;;;;21.02;12.13;;;5.20;99.90;;;;;;5139141;27;20529;-59
2021/12/04 06:25:25;;;;;;;18.30;12.43;;;5.30;99.90;;;;;;5146251;27;20043;-59
2021/12/04 06:27:51;;;;;;;16.95;11.68;;;5.20;99.90;;;;;;5129027;27;20054;-59
2021/12/04 06:30:18;;;;;;;18.52;12.75;;;5.20;99.90;;;;;;5110873;27;20043;-59
2021/12/04 06:32:47;;;;;;;19.40;12.10;;;5.20;99.90;;;;;;5146558;27;20094;-59
2021/12/04 06:35:14;;;;;;;21.23;12.35;;;5.10;99.90;;;;;;5111499;27;20035;-59
2021/12/04 06:37:40;;;;;;;16.27;12.20;;;5.10;99.90;;;;;;5127909;27;20046;-59
2021/12/04 06:40:08;;;;;;;17.23;11.82;;;5.00;99.90;;;;;;5146156;27;20054;-60
2021/12/04 06:42:34;;;;;;;14.98;11.00;;;5.00;99.90;;;;;;5147015;27;20070;-60
2021/12/04 06:45:01;;;;;;;19.30;13.57;;;5.10;99.90;;;;;;5147375;27;20042;-59
2021/12/04 06:47:27;;;;;;;18.88;13.30;;;5.10;99.90;;;;;;5146002;27;20084;-61
2021/12/04 06:49:58;;;;;;;16.05;11.85;;;5.00;99.90;;;;;;5146639;27;20055;-59
2021/12/04 06:52:27;;;;;;;15.95;12.38;;;5.10;99.90;;;;;;5146791;27;20068;-59
2021/12/04 06:54:58;;;;;;;17.38;12.93;;;5.10;99.90;;;;;;5122727;27;20043;-60
2021/12/04 06:57:24;;;;;;;16.48;11.25;;;5.20;99.90;;;;;;5119090;27;20115;-59
2021/12/04 06:59:52;;;;;;;17.35;12.63;;;5.20;99.90;;;;;;5145613;27;20074;-59
2021/12/04 07:02:19;;;;;;;16.85;12.13;;;5.30;99.90;;;;;;5145789;27;20038;-59
2021/12/04 07:04:45;;;;;;;17.80;12.65;;;5.20;99.90;;;;;;5127267;27;20055;-60
2021/12/04 07:07:12;;;;;;;17.50;12.63;;;5.30;99.90;;;;;;5127737;27;20047;-60
2021/12/04 07:09:38;;;;;;;19.23;13.40;;;5.10;99.90;;;;;;5146640;27;20072;-59
2021/12/04 07:12:05;;;;;;;22.25;13.65;;;5.00;99.90;;;;;;5110277;27;20070;-59
2021/12/04 07:14:32;;;;;;;19.00;12.93;;;5.10;99.90;;;;;;5145773;27;20035;-62
2021/12/04 07:17:01;;;;;;;18.92;12.75;;;5.10;99.90;;;;;;5127840;27;20047;-61
2021/12/04 07:19:27;;;;;;;17.35;12.23;;;5.20;99.90;;;;;;5145669;27;20518;-61
2021/12/04 07:21:53;;;;;;;17.25;11.27;;;5.10;99.90;;;;;;5103387;27;20047;-61
2021/12/04 07:24:19;;;;;;;18.13;12.43;;;5.30;99.90;;;;;;5140363;27;20044;-60
2021/12/04 07:26:44;;;;;;;16.95;11.63;;;5.30;99.90;;;;;;5133572;27;20044;-61
2021/12/04 07:29:10;;;;;;;14.95;11.30;;;5.40;99.90;;;;;;5116260;27;20043;-61
2021/12/04 07:31:39;;;;;;;16.48;11.40;;;5.20;99.90;;;;;;5145764;27;20058;-60
2021/12/04 07:34:06;;;;;;;18.90;11.30;;;5.20;99.90;;;;;;5126346;27;20051;-60
2021/12/04 07:36:33;;;;;;;15.52;10.77;;;5.10;99.90;;;;;;5144961;27;20039;-61
2021/12/04 07:38:59;;;;;;;15.20;11.48;;;5.10;99.90;;;;;;5136615;27;20051;-60
2021/12/04 07:41:26;;;;;;;13.52;10.82;;;5.00;99.90;;;;;;5125858;28;20085;-61
2021/12/04 07:43:52;;;;;;;14.57;10.13;;;5.10;99.90;;;;;;5126799;28;20604;-60
2021/12/04 07:46:18;;;;;;;13.07;10.13;;;5.20;99.90;;;;;;5144134;28;20031;-60
2021/12/04 07:48:44;;;;;;;13.40;10.48;;;5.20;99.90;;;;;;5117155;27;20100;-60
2021/12/04 07:51:10;;;;;;;13.93;9.98;;;5.30;99.90;;;;;;5151516;27;20047;-61
2021/12/04 07:53:35;;;;;;;14.60;11.07;;;5.30;99.90;;;;;;5144035;27;20047;-60
2021/12/04 07:56:01;;;;;;;13.18;10.45;;;5.30;99.90;;;;;;5143116;27;20039;-60
2021/12/04 07:58:27;;;;;;;12.98;10.57;;;5.30;99.90;;;;;;5117357;27;20066;-61
2021/12/04 08:00:53;;;;;;;13.98;10.85;;;5.40;99.90;;;;;;5148268;27;20073;-61
2021/12/04 08:03:19;;;;;;;14.35;11.02;;;5.40;99.90;;;;;;5122495;27;20305;-60
2021/12/04 08:05:46;;;;;;;15.68;10.93;;;5.30;99.90;;;;;;5146172;27;20051;-60
2021/12/04 08:08:12;;;;;;;15.43;11.82;;;5.20;99.90;;;;;;5152420;27;20043;-60
2021/12/04 08:10:38;;;;;;;16.20;11.80;;;5.20;99.90;;;;;;5133531;27;20057;-60
2021/12/04 08:13:04;;;;;;;14.68;10.93;;;5.20;99.90;;;;;;5144902;27;20134;-60
2021/12/04 08:15:31;;;;;;;15.98;11.93;;;5.50;99.90;;;;;;5151967;27;20035;-60
2021/12/04 08:17:57;;;;;;;16.70;12.85;;;5.60;99.90;;;;;;5138424;27;20051;-60
2021/12/04 08:20:25;;;;;;;15.48;11.32;;;5.50;99.90;;;;;;5145769;27;20092;-60
2021/12/04 08:22:52;;;;;;;17.20;12.77;;;5.50;99.90;;;;;;5123308;27;20053;-61
2021/12/04 08:25:18;;;;;;;19.63;12.45;;;5.40;99.90;;;;;;5150867;27;20046;-60
2021/12/04 08:27:46;;;;;;;16.77;10.75;;;5.50;99.90;;;;;;5145199;27;20499;-61
2021/12/04 08:30:17;;;;;;;19.67;12.82;;;5.50;99.90;;;;;;5130684;27;20035;-60
2021/12/04 08:32:43;;;;;;;20.55;13.15;;;5.60;99.90;;;;;;5132678;27;20043;-60
2021/12/04 08:35:11;;;;;;;18.55;12.27;;;5.60;99.90;;;;;;5132490;27;20031;-60
2021/12/04 08:37:37;;;;;;;21.20;13.93;;;5.60;99.90;;;;;;5145015;27;20043;-61
2021/12/04 08:40:10;;;;;;;19.38;13.02;;;5.40;99.90;;;;;;5129355;27;20053;-60
2021/12/04 08:42:38;;;;;;;20.25;13.70;;;5.40;99.90;;;;;;5133829;27;20051;-60
2021/12/04 08:45:04;;;;;;;18.70;11.57;;;5.30;99.90;;;;;;5152489;27;20057;-60
2021/12/04 08:47:30;;;;;;;22.52;13.13;;;5.50;99.90;;;;;;5133859;27;20070;-62
2021/12/04 08:49:56;;;;;;;20.45;12.40;;;5.50;99.90;;;;;;5133810;27;20065;-61
2021/12/04 08:52:21;;;;;;;21.75;13.00;;;5.70;99.90;;;;;;5151935;27;20035;-61
2021/12/04 08:54:47;;;;;;;17.13;10.70;;;5.70;99.90;;;;;;5147029;27;20050;-61
2021/12/04 08:57:14;;;;;;;19.05;11.32;;;5.80;99.90;;;;;;5127015;27;20039;-61
2021/12/04 08:59:39;;;;;;;18.85;11.95;;;5.60;99.90;;;;;;5151278;27;20056;-61
2021/12/04 09:02:06;;;;;;;18.98;12.55;;;5.60;99.90;;;;;;5149028;27;20043;-61
2021/12/04 09:04:35;;;;;;;18.42;11.18;;;5.50;99.90;;;;;;5149098;27;20040;-61
2021/12/04 09:07:03;;;;;;;17.95;11.75;;;5.70;99.90;;;;;;5147579;27;20087;-60
2021/12/04 09:09:31;;;;;;;17.58;11.63;;;5.70;99.90;;;;;;5129120;27;20047;-61
2021/12/04 09:12:00;;;;;;;15.63;11.02;;;5.80;99.90;;;;;;5130045;27;20107;-61
2021/12/04 09:14:30;;;;;;;16.50;10.30;;;5.70;99.90;;;;;;5130571;27;20143;-61
2021/12/04 09:16:58;;;;;;;18.20;12.03;;;5.80;99.90;;;;;;5130352;27;20047;-61
2021/12/04 09:19:25;;;;;;;18.42;11.10;;;5.70;99.90;;;;;;5147620;27;20031;-61
2021/12/04 09:21:53;;;;;;;18.35;12.38;;;5.70;99.90;;;;;;5146541;27;20098;-61
2021/12/04 09:24:25;;;;;;;17.02;10.30;;;5.70;99.90;;;;;;5117698;27;20039;-61
2021/12/04 09:27:35;;;;;;;15.45;10.15;;;5.70;99.90;;;;;;5126795;27;20066;-61
2021/12/04 09:59:21;;;;;;;21.83;12.73;;;5.50;99.90;;;;;;5147065;27;20415;-60
2021/12/04 09:59:56;;;;;;;22.23;13.82;;;5.80;99.90;;;;;;5128996;27;20111;-61
2021/12/04 10:34:59;;;;;;;29.95;15.25;;;6.00;99.90;;;;;;5123307;27;20050;-62
2021/12/04 10:37:27;;;;;;;;;;;6.00;99.90;;;;;;5129028;27;20057;-62
2021/12/04 10:39:56;;;;;;;26.23;14.68;;;5.90;99.90;;;;;;5128478;27;19919;-62
2021/12/04 10:42:30;;;;;;;29.63;16.23;;;6.10;99.90;;;;;;5128029;27;20036;-61
2021/12/04 10:44:57;;;;;;;28.70;14.88;;;6.00;99.90;;;;;;5127431;27;20047;-62
2021/12/04 10:47:27;;;;;;;27.10;15.45;;;6.10;99.90;;;;;;5127248;27;20115;-62
2021/12/04 10:52:57;;;;;;;25.42;14.07;;;6.00;99.90;;;;;;5127469;27;20654;-61
2021/12/04 10:55:32;;;;;;;23.13;11.43;;;6.10;99.90;;;;;;5103705;27;20165;-62
2021/12/04 11:01:49;;;;;;;25.90;13.32;;;6.20;99.90;;;;;;5127916;27;20054;-62
2021/12/04 11:04:33;;;;;;;24.80;13.90;;;6.10;99.90;;;;;;5126772;27;20051;-62
2021/12/04 11:35:22;;;;;;;25.10;14.02;;;6.20;99.90;;;;;;5044385;28;20053;-62
2021/12/04 11:38:05;;;;;;;26.33;15.90;;;6.20;99.90;;;;;;5062232;28;20053;-62
2021/12/04 11:40:50;;;;;;;29.08;16.38;;;6.00;99.90;;;;;;5061977;28;20057;-62
2021/12/04 11:43:20;;;;;;;25.92;14.57;;;6.00;99.90;;;;;;5045960;28;20048;-62
2021/12/04 11:48:39;;;;;;;26.95;15.57;;;6.20;99.90;;;;;;5069341;28;20113;-61
2021/12/04 11:51:13;;;;;;;30.02;18.30;;;6.30;99.90;;;;;;5121263;28;20043;-61
2021/12/04 11:53:39;;;;;;;31.00;18.58;;;6.20;99.90;;;;;;5126939;28;20047;-62
2021/12/04 11:56:04;;;;;;;29.90;18.27;;;6.20;99.90;;;;;;5142268;28;20443;-61
2021/12/04 11:58:33;;;;;;;31.05;17.10;;;6.10;99.90;;;;;;5126649;28;20046;-62
2021/12/04 12:01:03;;;;;;;33.60;19.98;;;6.20;99.90;;;;;;5140993;28;20444;-61
2021/12/04 12:03:33;;;;;;;;;;;6.20;99.90;;;;;;5143859;28;20046;-63
2021/12/04 12:06:08;;;;;;;25.98;15.93;;;6.00;99.90;;;;;;5145694;28;19919;-62
2021/12/04 12:08:42;;;;;;;30.48;17.58;;;6.20;99.90;;;;;;5118894;28;20055;-62
2021/12/04 12:11:13;;;;;;;29.50;16.55;;;6.10;99.90;;;;;;5144201;28;20051;-61
2021/12/04 12:13:49;;;;;;;29.83;18.52;;;6.20;99.90;;;;;;5126519;28;20081;-61
2021/12/04 12:16:19;;;;;;;32.67;17.73;;;6.30;99.90;;;;;;5127268;28;20048;-61
2021/12/04 12:18:51;;;;;;;35.20;19.88;;;6.30;99.90;;;;;;5145025;28;20043;-60
2021/12/04 12:21:22;;;;;;;41.60;21.48;;;6.40;99.90;;;;;;5141727;28;20047;-59
2021/12/04 12:38:46;;;;;;;47.97;23.95;;;6.50;99.90;;;;;;5149764;27;20441;-60
2021/12/04 12:41:15;;;;;;;43.72;21.02;;;6.40;99.90;;;;;;5148888;27;20043;-60
2021/12/04 12:43:43;;;;;;;51.45;25.55;;;6.40;99.90;;;;;;5129949;27;20050;-60
2021/12/04 12:46:10;;;;;;;61.25;30.05;;;6.40;99.90;;;;;;5130638;27;20071;-60
2021/12/04 12:49:03;;;;;;;53.38;26.85;;;6.30;99.90;;;;;;5148780;27;20047;-60
2021/12/04 12:51:33;;;;;;;51.83;24.05;;;6.20;99.90;;;;;;5136121;27;20059;-60
2021/12/04 12:54:03;;;;;;;53.08;25.75;;;6.10;99.90;;;;;;5147636;27;20035;-60
2021/12/04 12:56:32;;;;;;;54.67;25.83;;;6.20;99.90;;;;;;5138765;27;20047;-60
2021/12/04 12:59:19;;;;;;;48.40;24.88;;;6.10;99.90;;;;;;5148623;27;20047;-60
2021/12/04 13:13:34;;;;;;;45.40;22.73;;;6.00;99.90;;;;;;5147625;27;20449;-60
2021/12/04 13:16:14;;;;;;;46.75;22.15;;;5.90;99.90;;;;;;5130376;27;20054;-60
2021/12/04 13:18:44;;;;;;;44.90;22.67;;;5.80;99.90;;;;;;5128612;27;20130;-61
2021/12/04 13:21:10;;;;;;;45.45;23.52;;;6.00;99.90;;;;;;5134123;27;20047;-60
2021/12/04 13:23:38;;;;;;;43.30;22.50;;;6.00;99.90;;;;;;5145466;27;20039;-60
2021/12/04 13:26:10;;;;;;;44.58;21.73;;;5.90;99.90;;;;;;5119364;27;20047;-61
2021/12/04 13:28:40;;;;;;;44.75;23.15;;;5.90;99.90;;;;;;5128707;27;20050;-60
2021/12/04 13:31:06;;;;;;;42.67;21.07;;;5.80;99.90;;;;;;5148454;27;20043;-60
2021/12/04 13:33:34;;;;;;;36.65;19.23;;;5.80;99.90;;;;;;5129495;27;20092;-60
2021/12/04 13:35:59;;;;;;;39.40;20.65;;;5.80;99.90;;;;;;5147631;27;20058;-60
2021/12/04 13:38:27;;;;;;;35.20;19.60;;;5.90;99.90;;;;;;5146785;27;20043;-60
2021/12/04 13:40:54;;;;;;;36.08;19.42;;;5.90;99.90;;;;;;5146950;27;20049;-60
2021/12/04 13:43:22;;;;;;;41.25;21.65;;;5.90;99.90;;;;;;5138483;27;20046;-60
2021/12/04 13:46:00;;;;;;;37.05;20.73;;;5.80;99.90;;;;;;5147469;27;20084;-60
2021/12/04 13:48:29;;;;;;;39.25;20.13;;;5.90;99.90;;;;;;5128449;27;20100;-60
2021/12/04 13:50:55;;;;;;;40.53;22.42;;;6.00;99.90;;;;;;5148295;27;20050;-60
2021/12/04 13:53:29;;;;;;;44.42;21.95;;;6.00;99.90;;;;;;5144846;27;20040;-60
2021/12/04 13:56:04;;;;;;;50.15;23.33;;;5.90;99.90;;;;;;5129120;27;20059;-60
2021/12/04 13:58:29;;;;;;;48.40;24.08;;;5.90;99.90;;;;;;5128075;27;20043;-60
2021/12/04 14:00:56;;;;;;;51.35;24.42;;;5.80;99.90;;;;;;5147146;27;20065;-60
2021/12/04 14:03:28;;;;;;;50.65;25.38;;;5.80;99.90;;;;;;5147103;27;20032;-60
2021/12/04 14:05:55;;;;;;;53.13;24.58;;;6.00;99.90;;;;;;5146587;27;20059;-60
2021/12/04 14:08:21;;;;;;;45.60;22.77;;;6.10;99.90;;;;;;5147915;27;20039;-60
2021/12/04 14:10:48;;;;;;;51.78;24.55;;;6.10;99.90;;;;;;5129202;27;20077;-60
2021/12/04 14:13:23;;;;;;;50.30;24.50;;;6.10;99.90;;;;;;5129539;27;20047;-60
2021/12/04 14:15:52;;;;;;;44.03;23.08;;;6.00;99.90;;;;;;5147817;27;20487;-60
2021/12/04 14:18:22;;;;;;;46.88;23.55;;;6.00;99.90;;;;;;5128778;27;20077;-60
2021/12/04 14:20:52;;;;;;;47.20;24.00;;;5.90;99.90;;;;;;5127212;27;20054;-60
2021/12/04 14:23:18;;;;;;;47.35;24.58;;;5.90;99.90;;;;;;5128417;27;20104;-60
2021/12/04 14:25:44;;;;;;;58.22;26.25;;;5.90;99.90;;;;;;5147751;27;20238;-60
2021/12/04 14:28:16;;;;;;;60.00;27.70;;;6.00;99.90;;;;;;5132387;27;20139;-60
2021/12/04 14:30:44;;;;;;;65.82;30.63;;;5.80;99.90;;;;;;5110897;27;20047;-60
2021/12/04 14:33:14;;;;;;;56.92;27.58;;;5.80;99.90;;;;;;5127933;27;20082;-60
2021/12/04 14:35:44;;;;;;;63.53;28.50;;;5.90;99.90;;;;;;5147379;27;20618;-60
2021/12/04 14:38:14;;;;;;;68.38;30.05;;;5.80;99.90;;;;;;5146781;27;20043;-60
2021/12/04 14:40:42;;;;;;;75.55;31.85;;;5.70;99.90;;;;;;5127493;27;20095;-60
2021/12/04 14:43:14;;;;;;;60.97;27.77;;;5.80;99.90;;;;;;5146348;27;20507;-60
2021/12/04 14:45:44;;;;;;;64.55;28.48;;;5.80;99.90;;;;;;5147110;27;20060;-60
2021/12/04 14:48:27;;;;;;;73.10;29.90;;;5.80;99.90;;;;;;5128862;27;20099;-60
2021/12/04 14:51:04;;;;;;;62.33;26.27;;;5.80;99.90;;;;;;5117107;27;20043;-60
2021/12/04 14:53:31;;;;;;;66.05;28.73;;;5.80;99.90;;;;;;5111743;27;20064;-60
2021/12/04 14:55:58;;;;;;;67.88;28.48;;;6.00;99.90;;;;;;5128387;27;20055;-60
2021/12/04 14:58:25;;;;;;;65.45;29.42;;;6.00;99.90;;;;;;5127529;27;20050;-60
2021/12/04 15:01:00;;;;;;;70.93;29.95;;;6.00;99.90;;;;;;5147007;27;20043;-60
2021/12/04 15:03:37;;;;;;;74.88;30.98;;;5.80;99.90;;;;;;5146631;27;20043;-60
2021/12/04 15:06:06;;;;;;;70.28;30.92;;;5.80;99.90;;;;;;5146917;27;20050;-60
2021/12/04 15:08:39;;;;;;;59.92;28.20;;;5.70;99.90;;;;;;5128042;27;20038;-60
2021/12/04 15:11:08;;;;;;;67.72;28.48;;;5.70;99.90;;;;;;5145157;27;20082;-60
2021/12/04 15:13:41;;;;;;;65.20;28.92;;;5.70;99.90;;;;;;5114334;27;20050;-60
2021/12/04 15:16:13;;;;;;;70.32;30.42;;;5.70;99.90;;;;;;5146441;27;20530;-60
2021/12/04 15:18:40;;;;;;;71.15;30.77;;;5.60;99.90;;;;;;5127219;27;20058;-60
2021/12/04 15:21:15;;;;;;;64.35;29.02;;;5.60;99.90;;;;;;5144850;27;20039;-60
2021/12/04 15:23:44;;;;;;;64.18;29.25;;;5.70;99.90;;;;;;5145536;27;20094;-60
2021/12/04 15:26:13;;;;;;;58.38;27.65;;;5.70;99.90;;;;;;5126995;27;20130;-60
2021/12/04 15:28:47;;;;;;;70.47;31.03;;;5.70;99.90;;;;;;5118238;27;20054;-60
2021/12/04 15:31:14;;;;;;;63.25;29.27;;;5.60;99.90;;;;;;5145225;27;20039;-60
2021/12/04 15:33:44;;;;;;;63.05;28.02;;;5.70;99.90;;;;;;5145143;27;20119;-60
2021/12/04 15:36:25;;;;;;;65.85;29.95;;;5.70;99.90;;;;;;5146316;27;20050;-60
2021/12/04 15:38:54;;;;;;;66.45;31.33;;;5.70;99.90;;;;;;5146306;27;20047;-60
2021/12/04 15:41:57;;;;;;;59.47;28.83;;;5.60;99.90;;;;;;5127460;28;20053;-60
2021/12/04 15:44:48;;;;;;;61.90;29.40;;;5.70;99.90;;;;;;5126276;27;20050;-60
2021/12/04 15:55:15;;;;;;;79.97;34.33;;;5.60;99.90;;;;;;5126154;28;20528;-60
2021/12/04 15:57:56;;;;;;;76.55;37.88;;;5.60;99.90;;;;;;5144127;28;20046;-61
2021/12/04 16:00:25;;;;;;;72.30;35.03;;;5.50;99.90;;;;;;5141534;28;20035;-60
2021/12/04 16:02:56;;;;;;;78.20;39.97;;;5.50;99.90;;;;;;5144643;28;20036;-60
2021/12/04 16:05:24;;;;;;;88.28;43.85;;;5.60;99.90;;;;;;5127497;28;20058;-60